Accueil
METAR-TAF:

METAR-TAF

Aéroports :

Tripoli, Libye

Aéroport de Milaga

latitude: 32-54N, longitude: 13-17E, altitude: 11 m

Observation

Le bulletin a été fait il y a 12 minutes, à 18:55 UTC
Vent 9 kt de est
Température 20°C
Humidité 60%
Pression 1015 hPa
Visibilité: 7000 m

METAR: HLLM 241855Z 10009KT 7000 NSC 20/12 Q1015

Heure: 21:07 (19:07 UTC)

Prévision

Le bulletin a été fait il y a 14 heures et 7 minutes, à 05:00 UTC
Prévision valable du 24 à 06 UTC au 25 à 06 UTC
Vent 12 kt de sud-est
Visibilité: 8000 m
Evoluant progressivement
du 24 à 16 UTC au 24 à 18 UTC
Vent 12 kt de est avec des rafales jusqu'à 22 kt

TAF: HLLM 240500Z 2406/2506 14012KT 8000 NSC BECMG 2416/2418 08012G22KT

Observations et prévisions météorologiques de plus de 4000 aéroports (messages METAR et TAF).

Les stations disponibles sont représentées par des disques jaunes et rouges sur la carte.

Passer la souris dessus pour voir le nom de la station.

Cliquer dessus pour voir les observations et prévisions météorologiques.

Pour changer de carte: cliquez sur les boutons verts avec une croix noire pour zoomer, sur le bouton vert avec un tiret pour effectuer un zoom arrière, ou sur les flèches vertes pour les cartes adjacentes.


METAR-TAF: